sensor_id;sensor_type;location;lat;lon;timestamp;P1;durP1;ratioP1;P2;durP2;ratioP2
4214;SDS011;2121;48.062;7.850;2023-03-01T00:01:06;23.67;;;13.90;;
4214;SDS011;2121;48.062;7.850;2023-03-01T00:03:39;27.73;;;15.73;;
4214;SDS011;2121;48.062;7.850;2023-03-01T00:06:05;30.73;;;16.83;;
4214;SDS011;2121;48.062;7.850;2023-03-01T00:08:31;23.63;;;14.80;;
4214;SDS011;2121;48.062;7.850;2023-03-01T00:11:06;26.53;;;16.43;;
4214;SDS011;2121;48.062;7.850;2023-03-01T00:13:37;21.93;;;14.43;;
4214;SDS011;2121;48.062;7.850;2023-03-01T00:16:04;24.67;;;14.17;;
4214;SDS011;2121;48.062;7.850;2023-03-01T00:18:32;26.03;;;14.90;;
4214;SDS011;2121;48.062;7.850;2023-03-01T00:20:58;25.97;;;17.07;;
4214;SDS011;2121;48.062;7.850;2023-03-01T00:23:24;27.80;;;15.17;;
4214;SDS011;2121;48.062;7.850;2023-03-01T00:25:50;22.93;;;15.33;;
4214;SDS011;2121;48.062;7.850;2023-03-01T00:28:17;28.27;;;16.67;;
4214;SDS011;2121;48.062;7.850;2023-03-01T00:30:44;31.37;;;15.93;;
4214;SDS011;2121;48.062;7.850;2023-03-01T00:33:10;20.80;;;12.87;;
4214;SDS011;2121;48.062;7.850;2023-03-01T00:35:35;27.17;;;15.33;;
4214;SDS011;2121;48.062;7.850;2023-03-01T00:38:01;25.53;;;15.60;;
4214;SDS011;2121;48.062;7.850;2023-03-01T00:40:28;29.27;;;15.40;;
4214;SDS011;2121;48.062;7.850;2023-03-01T00:42:57;23.57;;;15.07;;
4214;SDS011;2121;48.062;7.850;2023-03-01T00:45:23;26.00;;;15.20;;
4214;SDS011;2121;48.062;7.850;2023-03-01T00:47:50;21.73;;;15.07;;
4214;SDS011;2121;48.062;7.850;2023-03-01T00:50:16;27.17;;;14.93;;
4214;SDS011;2121;48.062;7.850;2023-03-01T00:52:43;25.30;;;13.70;;
4214;SDS011;2121;48.062;7.850;2023-03-01T00:55:10;22.90;;;14.23;;
4214;SDS011;2121;48.062;7.850;2023-03-01T00:57:36;19.57;;;13.57;;
4214;SDS011;2121;48.062;7.850;2023-03-01T01:00:02;22.73;;;13.97;;
4214;SDS011;2121;48.062;7.850;2023-03-01T01:02:33;20.30;;;13.40;;
4214;SDS011;2121;48.062;7.850;2023-03-01T01:04:59;19.60;;;13.43;;
4214;SDS011;2121;48.062;7.850;2023-03-01T01:07:24;21.47;;;12.10;;
4214;SDS011;2121;48.062;7.850;2023-03-01T01:09:50;20.70;;;14.97;;
4214;SDS011;2121;48.062;7.850;2023-03-01T01:12:16;23.77;;;13.43;;
4214;SDS011;2121;48.062;7.850;2023-03-01T01:14:42;21.70;;;12.83;;
4214;SDS011;2121;48.062;7.850;2023-03-01T01:17:08;25.37;;;13.43;;
4214;SDS011;2121;48.062;7.850;2023-03-01T01:19:33;24.73;;;13.73;;
4214;SDS011;2121;48.062;7.850;2023-03-01T01:21:59;18.37;;;13.43;;
4214;SDS011;2121;48.062;7.850;2023-03-01T01:24:25;25.43;;;14.67;;
4214;SDS011;2121;48.062;7.850;2023-03-01T01:26:51;24.23;;;16.03;;
4214;SDS011;2121;48.062;7.850;2023-03-01T01:29:16;20.90;;;12.63;;
4214;SDS011;2121;48.062;7.850;2023-03-01T01:31:43;23.17;;;13.20;;
4214;SDS011;2121;48.062;7.850;2023-03-01T01:34:12;25.83;;;14.60;;
4214;SDS011;2121;48.062;7.850;2023-03-01T01:36:46;20.83;;;14.30;;
4214;SDS011;2121;48.062;7.850;2023-03-01T01:39:14;18.97;;;13.07;;
4214;SDS011;2121;48.062;7.850;2023-03-01T01:41:40;24.33;;;12.93;;
4214;SDS011;2121;48.062;7.850;2023-03-01T01:44:20;26.97;;;13.07;;
4214;SDS011;2121;48.062;7.850;2023-03-01T01:47:34;20.60;;;12.33;;
4214;SDS011;2121;48.062;7.850;2023-03-01T01:49:48;23.97;;;14.63;;
4214;SDS011;2121;48.062;7.850;2023-03-01T01:52:18;19.80;;;13.20;;
4214;SDS011;2121;48.062;7.850;2023-03-01T01:55:14;15.23;;;10.70;;
4214;SDS011;2121;48.062;7.850;2023-03-01T01:57:47;21.40;;;13.00;;
4214;SDS011;2121;48.062;7.850;2023-03-01T02:00:19;24.30;;;14.13;;
4214;SDS011;2121;48.062;7.850;2023-03-01T02:02:49;24.90;;;13.37;;
4214;SDS011;2121;48.062;7.850;2023-03-01T02:05:24;22.90;;;13.30;;
4214;SDS011;2121;48.062;7.850;2023-03-01T02:08:05;21.43;;;14.57;;
4214;SDS011;2121;48.062;7.850;2023-03-01T02:10:32;17.77;;;11.33;;
4214;SDS011;2121;48.062;7.850;2023-03-01T02:12:59;19.83;;;13.23;;
4214;SDS011;2121;48.062;7.850;2023-03-01T02:15:25;21.77;;;13.70;;
4214;SDS011;2121;48.062;7.850;2023-03-01T02:17:52;21.70;;;12.80;;
4214;SDS011;2121;48.062;7.850;2023-03-01T02:23:28;43.07;;;13.43;;
4214;SDS011;2121;48.062;7.850;2023-03-01T02:25:56;21.37;;;13.97;;
4214;SDS011;2121;48.062;7.850;2023-03-01T02:28:32;20.13;;;12.87;;
4214;SDS011;2121;48.062;7.850;2023-03-01T02:31:01;22.47;;;14.10;;
4214;SDS011;2121;48.062;7.850;2023-03-01T02:33:49;20.93;;;12.37;;
4214;SDS011;2121;48.062;7.850;2023-03-01T02:39:11;20.17;;;12.60;;
4214;SDS011;2121;48.062;7.850;2023-03-01T02:41:54;19.17;;;11.40;;
4214;SDS011;2121;48.062;7.850;2023-03-01T02:44:22;27.53;;;14.27;;
4214;SDS011;2121;48.062;7.850;2023-03-01T02:46:52;20.97;;;14.10;;
4214;SDS011;2121;48.062;7.850;2023-03-01T02:49:25;19.93;;;12.87;;
4214;SDS011;2121;48.062;7.850;2023-03-01T02:55:06;23.50;;;13.80;;
4214;SDS011;2121;48.062;7.850;2023-03-01T02:57:37;27.67;;;13.80;;
4214;SDS011;2121;48.062;7.850;2023-03-01T03:00:11;15.90;;;11.50;;
4214;SDS011;2121;48.062;7.850;2023-03-01T03:02:45;22.13;;;13.40;;
4214;SDS011;2121;48.062;7.850;2023-03-01T03:05:29;26.83;;;13.97;;
4214;SDS011;2121;48.062;7.850;2023-03-01T03:07:56;16.20;;;11.33;;
4214;SDS011;2121;48.062;7.850;2023-03-01T03:10:26;22.90;;;13.77;;
4214;SDS011;2121;48.062;7.850;2023-03-01T03:13:00;16.20;;;11.80;;
4214;SDS011;2121;48.062;7.850;2023-03-01T03:15:34;16.80;;;10.70;;
4214;SDS011;2121;48.062;7.850;2023-03-01T03:18:01;21.27;;;12.03;;
4214;SDS011;2121;48.062;7.850;2023-03-01T03:20:29;19.03;;;10.60;;
4214;SDS011;2121;48.062;7.850;2023-03-01T03:22:56;15.00;;;10.97;;
4214;SDS011;2121;48.062;7.850;2023-03-01T03:25:23;21.27;;;12.10;;
4214;SDS011;2121;48.062;7.850;2023-03-01T03:27:51;19.40;;;12.40;;
4214;SDS011;2121;48.062;7.850;2023-03-01T03:30:32;15.97;;;11.33;;
4214;SDS011;2121;48.062;7.850;2023-03-01T03:32:58;17.97;;;12.40;;
4214;SDS011;2121;48.062;7.850;2023-03-01T03:35:26;19.80;;;12.10;;
4214;SDS011;2121;48.062;7.850;2023-03-01T03:37:58;16.00;;;11.40;;
4214;SDS011;2121;48.062;7.850;2023-03-01T03:40:38;18.50;;;12.33;;
4214;SDS011;2121;48.062;7.850;2023-03-01T03:43:16;20.40;;;10.50;;
4214;SDS011;2121;48.062;7.850;2023-03-01T03:45:44;17.70;;;11.30;;
4214;SDS011;2121;48.062;7.850;2023-03-01T03:48:11;18.70;;;11.87;;
4214;SDS011;2121;48.062;7.850;2023-03-01T03:50:37;16.80;;;11.40;;
4214;SDS011;2121;48.062;7.850;2023-03-01T03:53:06;19.27;;;12.07;;
4214;SDS011;2121;48.062;7.850;2023-03-01T03:55:37;17.67;;;11.73;;
4214;SDS011;2121;48.062;7.850;2023-03-01T03:58:04;27.23;;;12.03;;
4214;SDS011;2121;48.062;7.850;2023-03-01T04:00:32;18.80;;;10.60;;
4214;SDS011;2121;48.062;7.850;2023-03-01T04:03:04;19.00;;;13.40;;
4214;SDS011;2121;48.062;7.850;2023-03-01T04:05:30;17.67;;;11.90;;
4214;SDS011;2121;48.062;7.850;2023-03-01T04:07:57;14.87;;;11.30;;
4214;SDS011;2121;48.062;7.850;2023-03-01T04:10:30;18.57;;;11.27;;
4214;SDS011;2121;48.062;7.850;2023-03-01T04:13:09;23.03;;;12.47;;
4214;SDS011;2121;48.062;7.850;2023-03-01T04:15:39;20.77;;;12.97;;
4214;SDS011;2121;48.062;7.850;2023-03-01T04:18:05;21.10;;;12.80;;
4214;SDS011;2121;48.062;7.850;2023-03-01T04:20:33;19.73;;;12.57;;
4214;SDS011;2121;48.062;7.850;2023-03-01T04:23:04;24.47;;;11.30;;
4214;SDS011;2121;48.062;7.850;2023-03-01T04:25:41;23.67;;;12.77;;
4214;SDS011;2121;48.062;7.850;2023-03-01T04:28:20;25.50;;;12.50;;
4214;SDS011;2121;48.062;7.850;2023-03-01T04:30:55;17.87;;;10.63;;
4214;SDS011;2121;48.062;7.850;2023-03-01T04:33:23;27.90;;;13.40;;
4214;SDS011;2121;48.062;7.850;2023-03-01T04:35:50;19.80;;;12.30;;
4214;SDS011;2121;48.062;7.850;2023-03-01T04:38:17;20.47;;;13.37;;
4214;SDS011;2121;48.062;7.850;2023-03-01T04:40:44;19.70;;;12.40;;
4214;SDS011;2121;48.062;7.850;2023-03-01T04:43:11;19.57;;;11.50;;
4214;SDS011;2121;48.062;7.850;2023-03-01T04:45:39;16.13;;;12.00;;
4214;SDS011;2121;48.062;7.850;2023-03-01T04:48:05;22.83;;;12.97;;
4214;SDS011;2121;48.062;7.850;2023-03-01T04:50:31;20.53;;;12.30;;
4214;SDS011;2121;48.062;7.850;2023-03-01T04:52:57;27.93;;;14.07;;
4214;SDS011;2121;48.062;7.850;2023-03-01T04:55:24;17.50;;;12.53;;
4214;SDS011;2121;48.062;7.850;2023-03-01T04:57:53;20.93;;;13.17;;
4214;SDS011;2121;48.062;7.850;2023-03-01T05:00:20;19.30;;;12.77;;
4214;SDS011;2121;48.062;7.850;2023-03-01T05:05:14;20.83;;;12.63;;
4214;SDS011;2121;48.062;7.850;2023-03-01T05:07:40;19.77;;;12.73;;
4214;SDS011;2121;48.062;7.850;2023-03-01T05:10:06;16.83;;;10.60;;
4214;SDS011;2121;48.062;7.850;2023-03-01T05:12:32;23.27;;;12.90;;
4214;SDS011;2121;48.062;7.850;2023-03-01T05:14:58;21.60;;;13.20;;
4214;SDS011;2121;48.062;7.850;2023-03-01T05:17:23;22.50;;;13.40;;
4214;SDS011;2121;48.062;7.850;2023-03-01T05:19:49;23.03;;;13.10;;
4214;SDS011;2121;48.062;7.850;2023-03-01T05:22:15;24.77;;;15.33;;
4214;SDS011;2121;48.062;7.850;2023-03-01T05:24:41;20.70;;;13.20;;
4214;SDS011;2121;48.062;7.850;2023-03-01T05:27:07;19.87;;;13.20;;
4214;SDS011;2121;48.062;7.850;2023-03-01T05:29:33;18.40;;;12.87;;
4214;SDS011;2121;48.062;7.850;2023-03-01T05:32:00;20.47;;;13.80;;
4214;SDS011;2121;48.062;7.850;2023-03-01T05:34:34;40.53;;;14.50;;
4214;SDS011;2121;48.062;7.850;2023-03-01T05:37:01;23.87;;;13.63;;
4214;SDS011;2121;48.062;7.850;2023-03-01T05:39:28;24.97;;;13.40;;
4214;SDS011;2121;48.062;7.850;2023-03-01T05:41:55;30.50;;;14.90;;
4214;SDS011;2121;48.062;7.850;2023-03-01T05:44:23;22.70;;;12.57;;
4214;SDS011;2121;48.062;7.850;2023-03-01T05:46:52;19.73;;;12.90;;
4214;SDS011;2121;48.062;7.850;2023-03-01T05:49:18;22.40;;;13.53;;
4214;SDS011;2121;48.062;7.850;2023-03-01T05:51:47;20.57;;;12.80;;
4214;SDS011;2121;48.062;7.850;2023-03-01T05:54:16;22.37;;;15.07;;
4214;SDS011;2121;48.062;7.850;2023-03-01T05:56:43;24.60;;;13.80;;
4214;SDS011;2121;48.062;7.850;2023-03-01T05:59:09;26.47;;;14.33;;
4214;SDS011;2121;48.062;7.850;2023-03-01T06:01:36;19.20;;;13.17;;
4214;SDS011;2121;48.062;7.850;2023-03-01T06:04:03;21.97;;;15.07;;
4214;SDS011;2121;48.062;7.850;2023-03-01T06:06:29;29.83;;;15.23;;
4214;SDS011;2121;48.062;7.850;2023-03-01T06:08:59;24.63;;;14.13;;
4214;SDS011;2121;48.062;7.850;2023-03-01T06:11:25;32.73;;;15.27;;
4214;SDS011;2121;48.062;7.850;2023-03-01T06:13:50;21.63;;;13.80;;
4214;SDS011;2121;48.062;7.850;2023-03-01T06:16:16;21.13;;;12.83;;
4214;SDS011;2121;48.062;7.850;2023-03-01T06:18:42;25.40;;;15.30;;
4214;SDS011;2121;48.062;7.850;2023-03-01T06:21:08;22.17;;;14.90;;
4214;SDS011;2121;48.062;7.850;2023-03-01T06:23:34;27.07;;;14.80;;
4214;SDS011;2121;48.062;7.850;2023-03-01T06:26:00;23.40;;;14.27;;
4214;SDS011;2121;48.062;7.850;2023-03-01T06:28:32;34.63;;;17.00;;
4214;SDS011;2121;48.062;7.850;2023-03-01T06:30:58;30.93;;;15.50;;
4214;SDS011;2121;48.062;7.850;2023-03-01T06:33:24;36.43;;;16.80;;
4214;SDS011;2121;48.062;7.850;2023-03-01T06:35:50;27.90;;;15.77;;
4214;SDS011;2121;48.062;7.850;2023-03-01T06:38:16;22.57;;;14.80;;
4214;SDS011;2121;48.062;7.850;2023-03-01T06:40:44;24.07;;;15.43;;
4214;SDS011;2121;48.062;7.850;2023-03-01T06:43:10;22.40;;;15.30;;
4214;SDS011;2121;48.062;7.850;2023-03-01T06:45:36;30.20;;;15.60;;
4214;SDS011;2121;48.062;7.850;2023-03-01T06:48:05;21.27;;;14.77;;
4214;SDS011;2121;48.062;7.850;2023-03-01T06:50:32;30.30;;;17.70;;
4214;SDS011;2121;48.062;7.850;2023-03-01T06:52:59;27.97;;;14.83;;
4214;SDS011;2121;48.062;7.850;2023-03-01T06:55:26;26.30;;;15.10;;
4214;SDS011;2121;48.062;7.850;2023-03-01T06:57:55;22.40;;;14.70;;
4214;SDS011;2121;48.062;7.850;2023-03-01T07:00:26;22.87;;;15.70;;
4214;SDS011;2121;48.062;7.850;2023-03-01T07:02:52;31.27;;;17.20;;
4214;SDS011;2121;48.062;7.850;2023-03-01T07:05:19;31.53;;;16.97;;
4214;SDS011;2121;48.062;7.850;2023-03-01T07:07:45;36.27;;;17.57;;
4214;SDS011;2121;48.062;7.850;2023-03-01T07:10:11;22.40;;;15.73;;
4214;SDS011;2121;48.062;7.850;2023-03-01T07:12:37;25.90;;;15.80;;
4214;SDS011;2121;48.062;7.850;2023-03-01T07:15:03;24.37;;;14.80;;
4214;SDS011;2121;48.062;7.850;2023-03-01T07:17:30;28.00;;;15.33;;
4214;SDS011;2121;48.062;7.850;2023-03-01T07:19:56;23.13;;;13.40;;
4214;SDS011;2121;48.062;7.850;2023-03-01T07:22:22;24.77;;;14.50;;
4214;SDS011;2121;48.062;7.850;2023-03-01T07:24:47;25.93;;;13.83;;
4214;SDS011;2121;48.062;7.850;2023-03-01T07:27:13;22.03;;;14.30;;
4214;SDS011;2121;48.062;7.850;2023-03-01T07:29:39;22.00;;;14.27;;
4214;SDS011;2121;48.062;7.850;2023-03-01T07:32:05;25.90;;;13.93;;
4214;SDS011;2121;48.062;7.850;2023-03-01T07:34:31;21.83;;;13.33;;
4214;SDS011;2121;48.062;7.850;2023-03-01T07:36:57;19.10;;;13.93;;
4214;SDS011;2121;48.062;7.850;2023-03-01T07:39:23;23.60;;;15.17;;
4214;SDS011;2121;48.062;7.850;2023-03-01T07:41:49;25.23;;;15.37;;
4214;SDS011;2121;48.062;7.850;2023-03-01T07:44:15;24.93;;;14.07;;
4214;SDS011;2121;48.062;7.850;2023-03-01T07:46:42;22.73;;;13.23;;
4214;SDS011;2121;48.062;7.850;2023-03-01T07:49:08;21.80;;;13.33;;
4214;SDS011;2121;48.062;7.850;2023-03-01T07:51:34;29.07;;;15.50;;
4214;SDS011;2121;48.062;7.850;2023-03-01T07:54:00;24.00;;;15.40;;
4214;SDS011;2121;48.062;7.850;2023-03-01T07:56:26;21.17;;;13.50;;
4214;SDS011;2121;48.062;7.850;2023-03-01T07:58:52;23.20;;;12.03;;
4214;SDS011;2121;48.062;7.850;2023-03-01T08:01:19;17.10;;;12.30;;
4214;SDS011;2121;48.062;7.850;2023-03-01T08:03:46;19.27;;;12.40;;
4214;SDS011;2121;48.062;7.850;2023-03-01T08:06:14;21.70;;;12.53;;
4214;SDS011;2121;48.062;7.850;2023-03-01T08:08:41;23.57;;;14.33;;
4214;SDS011;2121;48.062;7.850;2023-03-01T08:11:09;25.57;;;13.33;;
4214;SDS011;2121;48.062;7.850;2023-03-01T08:13:37;28.70;;;12.70;;
4214;SDS011;2121;48.062;7.850;2023-03-01T08:16:06;20.93;;;13.10;;
4214;SDS011;2121;48.062;7.850;2023-03-01T08:18:37;27.10;;;12.67;;
4214;SDS011;2121;48.062;7.850;2023-03-01T08:21:11;25.20;;;11.93;;
4214;SDS011;2121;48.062;7.850;2023-03-01T08:23:41;30.63;;;14.33;;
4214;SDS011;2121;48.062;7.850;2023-03-01T08:26:12;25.97;;;13.77;;
4214;SDS011;2121;48.062;7.850;2023-03-01T08:28:43;20.77;;;13.13;;
4214;SDS011;2121;48.062;7.850;2023-03-01T08:31:13;21.73;;;12.40;;
4214;SDS011;2121;48.062;7.850;2023-03-01T08:33:48;24.67;;;13.57;;
4214;SDS011;2121;48.062;7.850;2023-03-01T08:36:20;17.53;;;11.37;;
4214;SDS011;2121;48.062;7.850;2023-03-01T08:38:48;24.90;;;12.77;;
4214;SDS011;2121;48.062;7.850;2023-03-01T08:41:14;19.07;;;12.87;;
4214;SDS011;2121;48.062;7.850;2023-03-01T08:43:40;24.50;;;13.67;;
4214;SDS011;2121;48.062;7.850;2023-03-01T08:46:06;20.77;;;14.07;;
4214;SDS011;2121;48.062;7.850;2023-03-01T08:48:32;24.57;;;14.10;;
4214;SDS011;2121;48.062;7.850;2023-03-01T08:51:06;23.50;;;13.57;;
4214;SDS011;2121;48.062;7.850;2023-03-01T08:53:40;20.20;;;12.20;;
4214;SDS011;2121;48.062;7.850;2023-03-01T08:56:07;18.27;;;12.00;;
4214;SDS011;2121;48.062;7.850;2023-03-01T08:58:33;18.97;;;12.40;;
4214;SDS011;2121;48.062;7.850;2023-03-01T09:01:00;20.90;;;12.80;;
4214;SDS011;2121;48.062;7.850;2023-03-01T09:03:26;19.70;;;13.37;;
4214;SDS011;2121;48.062;7.850;2023-03-01T09:05:52;27.47;;;13.43;;
4214;SDS011;2121;48.062;7.850;2023-03-01T09:08:25;26.20;;;17.87;;
4214;SDS011;2121;48.062;7.850;2023-03-01T09:10:50;26.30;;;14.60;;
4214;SDS011;2121;48.062;7.850;2023-03-01T09:13:16;15.57;;;12.50;;
4214;SDS011;2121;48.062;7.850;2023-03-01T09:15:42;23.53;;;13.27;;
4214;SDS011;2121;48.062;7.850;2023-03-01T09:18:07;21.33;;;13.33;;
4214;SDS011;2121;48.062;7.850;2023-03-01T09:20:33;22.17;;;14.10;;
4214;SDS011;2121;48.062;7.850;2023-03-01T09:22:59;19.77;;;12.70;;
4214;SDS011;2121;48.062;7.850;2023-03-01T09:25:25;23.80;;;13.10;;
4214;SDS011;2121;48.062;7.850;2023-03-01T09:27:51;27.13;;;12.77;;
4214;SDS011;2121;48.062;7.850;2023-03-01T09:30:18;21.87;;;14.90;;
4214;SDS011;2121;48.062;7.850;2023-03-01T09:32:44;21.10;;;12.53;;
4214;SDS011;2121;48.062;7.850;2023-03-01T09:35:10;18.00;;;13.57;;
4214;SDS011;2121;48.062;7.850;2023-03-01T09:37:37;20.83;;;14.23;;
4214;SDS011;2121;48.062;7.850;2023-03-01T09:40:06;19.07;;;12.87;;
4214;SDS011;2121;48.062;7.850;2023-03-01T09:42:45;20.10;;;14.00;;
4214;SDS011;2121;48.062;7.850;2023-03-01T09:45:28;21.13;;;12.53;;
4214;SDS011;2121;48.062;7.850;2023-03-01T09:48:00;22.60;;;13.17;;
4214;SDS011;2121;48.062;7.850;2023-03-01T09:50:28;25.27;;;13.37;;
4214;SDS011;2121;48.062;7.850;2023-03-01T09:53:01;21.90;;;13.90;;
4214;SDS011;2121;48.062;7.850;2023-03-01T10:00:53;19.03;;;13.33;;
4214;SDS011;2121;48.062;7.850;2023-03-01T10:03:31;19.83;;;13.73;;
4214;SDS011;2121;48.062;7.850;2023-03-01T10:11:18;24.73;;;14.47;;
4214;SDS011;2121;48.062;7.850;2023-03-01T10:13:55;19.17;;;12.87;;
4214;SDS011;2121;48.062;7.850;2023-03-01T10:16:32;25.27;;;15.13;;
4214;SDS011;2121;48.062;7.850;2023-03-01T10:19:38;25.10;;;14.93;;
4214;SDS011;2121;48.062;7.850;2023-03-01T10:24:46;20.87;;;14.73;;
4214;SDS011;2121;48.062;7.850;2023-03-01T10:27:23;23.07;;;12.40;;
4214;SDS011;2121;48.062;7.850;2023-03-01T10:30:10;23.93;;;13.93;;
4214;SDS011;2121;48.062;7.850;2023-03-01T10:32:46;25.20;;;14.87;;
4214;SDS011;2121;48.062;7.850;2023-03-01T10:35:17;21.10;;;14.50;;
4214;SDS011;2121;48.062;7.850;2023-03-01T10:40:31;19.93;;;13.10;;
4214;SDS011;2121;48.062;7.850;2023-03-01T10:43:03;22.30;;;14.10;;
4214;SDS011;2121;48.062;7.850;2023-03-01T10:48:20;26.27;;;14.23;;
4214;SDS011;2121;48.062;7.850;2023-03-01T10:51:04;36.17;;;15.33;;
4214;SDS011;2121;48.062;7.850;2023-03-01T10:58:34;27.30;;;16.13;;
4214;SDS011;2121;48.062;7.850;2023-03-01T11:01:09;26.30;;;14.40;;
4214;SDS011;2121;48.062;7.850;2023-03-01T11:06:36;27.50;;;16.67;;
4214;SDS011;2121;48.062;7.850;2023-03-01T11:09:23;31.00;;;14.87;;
4214;SDS011;2121;48.062;7.850;2023-03-01T11:11:59;18.57;;;12.00;;
4214;SDS011;2121;48.062;7.850;2023-03-01T11:14:47;24.50;;;16.10;;
4214;SDS011;2121;48.062;7.850;2023-03-01T11:17:23;26.97;;;14.67;;
4214;SDS011;2121;48.062;7.850;2023-03-01T11:22:58;23.17;;;14.93;;
4214;SDS011;2121;48.062;7.850;2023-03-01T11:25:33;25.50;;;15.57;;
4214;SDS011;2121;48.062;7.850;2023-03-01T11:28:04;21.67;;;13.53;;
4214;SDS011;2121;48.062;7.850;2023-03-01T11:33:33;21.73;;;12.47;;
4214;SDS011;2121;48.062;7.850;2023-03-01T11:39:39;23.50;;;13.73;;
4214;SDS011;2121;48.062;7.850;2023-03-01T11:42:20;21.63;;;14.83;;
4214;SDS011;2121;48.062;7.850;2023-03-01T11:45:12;25.77;;;15.70;;
4214;SDS011;2121;48.062;7.850;2023-03-01T11:47:54;26.73;;;15.57;;
4214;SDS011;2121;48.062;7.850;2023-03-01T11:51:13;23.73;;;14.77;;
4214;SDS011;2121;48.062;7.850;2023-03-01T11:56:47;20.03;;;13.50;;
4214;SDS011;2121;48.062;7.850;2023-03-01T12:02:25;25.23;;;14.83;;
4214;SDS011;2121;48.062;7.850;2023-03-01T12:08:17;18.40;;;14.07;;
4214;SDS011;2121;48.062;7.850;2023-03-01T12:26:02;18.17;;;12.93;;
4214;SDS011;2121;48.062;7.850;2023-03-01T12:37:15;19.90;;;12.80;;
4214;SDS011;2121;48.062;7.850;2023-03-01T12:51:10;20.27;;;13.47;;
4214;SDS011;2121;48.062;7.850;2023-03-01T12:53:41;16.87;;;11.97;;
4214;SDS011;2121;48.062;7.850;2023-03-01T12:56:20;15.67;;;12.97;;
4214;SDS011;2121;48.062;7.850;2023-03-01T13:04:35;18.80;;;13.00;;
4214;SDS011;2121;48.062;7.850;2023-03-01T13:10:11;21.40;;;14.90;;
4214;SDS011;2121;48.062;7.850;2023-03-01T13:15:34;19.40;;;13.20;;
4214;SDS011;2121;48.062;7.850;2023-03-01T13:20:47;22.60;;;13.20;;
4214;SDS011;2121;48.062;7.850;2023-03-01T13:33:46;17.87;;;11.60;;
4214;SDS011;2121;48.062;7.850;2023-03-01T13:46:49;19.17;;;12.77;;
4214;SDS011;2121;48.062;7.850;2023-03-01T13:49:23;19.07;;;12.17;;
4214;SDS011;2121;48.062;7.850;2023-03-01T13:51:53;23.70;;;11.50;;
4214;SDS011;2121;48.062;7.850;2023-03-01T13:54:26;16.77;;;11.00;;
4214;SDS011;2121;48.062;7.850;2023-03-01T13:56:57;23.63;;;12.97;;
4214;SDS011;2121;48.062;7.850;2023-03-01T13:59:25;24.40;;;12.50;;
4214;SDS011;2121;48.062;7.850;2023-03-01T14:01:53;16.70;;;10.70;;
4214;SDS011;2121;48.062;7.850;2023-03-01T14:04:22;16.10;;;11.83;;
4214;SDS011;2121;48.062;7.850;2023-03-01T14:07:20;20.87;;;11.50;;
4214;SDS011;2121;48.062;7.850;2023-03-01T14:09:52;18.50;;;11.30;;
4214;SDS011;2121;48.062;7.850;2023-03-01T14:18:03;18.30;;;11.67;;
4214;SDS011;2121;48.062;7.850;2023-03-01T14:20:44;20.40;;;11.20;;
4214;SDS011;2121;48.062;7.850;2023-03-01T14:23:17;17.73;;;12.00;;
4214;SDS011;2121;48.062;7.850;2023-03-01T14:25:47;15.20;;;10.83;;
4214;SDS011;2121;48.062;7.850;2023-03-01T14:28:20;16.10;;;11.40;;
4214;SDS011;2121;48.062;7.850;2023-03-01T14:30:52;17.83;;;12.03;;
4214;SDS011;2121;48.062;7.850;2023-03-01T14:38:33;17.60;;;11.70;;
4214;SDS011;2121;48.062;7.850;2023-03-01T14:43:36;14.90;;;11.43;;
4214;SDS011;2121;48.062;7.850;2023-03-01T14:46:04;22.20;;;13.17;;
4214;SDS011;2121;48.062;7.850;2023-03-01T14:48:30;21.93;;;13.93;;
4214;SDS011;2121;48.062;7.850;2023-03-01T14:50:57;29.00;;;12.53;;
4214;SDS011;2121;48.062;7.850;2023-03-01T14:53:24;19.30;;;14.53;;
4214;SDS011;2121;48.062;7.850;2023-03-01T14:55:54;26.83;;;13.77;;
4214;SDS011;2121;48.062;7.850;2023-03-01T14:58:27;16.53;;;12.17;;
4214;SDS011;2121;48.062;7.850;2023-03-01T15:00:57;19.03;;;11.97;;
4214;SDS011;2121;48.062;7.850;2023-03-01T15:03:30;25.57;;;16.03;;
4214;SDS011;2121;48.062;7.850;2023-03-01T15:06:12;26.07;;;17.40;;
4214;SDS011;2121;48.062;7.850;2023-03-01T15:08:44;25.33;;;15.77;;
4214;SDS011;2121;48.062;7.850;2023-03-01T15:13:53;29.93;;;16.40;;
4214;SDS011;2121;48.062;7.850;2023-03-01T15:16:29;24.93;;;17.10;;
4214;SDS011;2121;48.062;7.850;2023-03-01T15:19:05;29.60;;;17.20;;
4214;SDS011;2121;48.062;7.850;2023-03-01T15:24:05;27.03;;;15.90;;
4214;SDS011;2121;48.062;7.850;2023-03-01T15:26:43;29.67;;;17.43;;
4214;SDS011;2121;48.062;7.850;2023-03-01T15:29:26;27.33;;;17.70;;
4214;SDS011;2121;48.062;7.850;2023-03-01T15:31:59;32.70;;;21.40;;
4214;SDS011;2121;48.062;7.850;2023-03-01T15:34:35;28.33;;;18.43;;
4214;SDS011;2121;48.062;7.850;2023-03-01T15:37:03;29.97;;;17.27;;
4214;SDS011;2121;48.062;7.850;2023-03-01T15:40:35;24.80;;;16.57;;
4214;SDS011;2121;48.062;7.850;2023-03-01T15:43:36;27.73;;;17.00;;
4214;SDS011;2121;48.062;7.850;2023-03-01T15:46:21;26.80;;;16.97;;
4214;SDS011;2121;48.062;7.850;2023-03-01T15:48:53;25.53;;;16.93;;
4214;SDS011;2121;48.062;7.850;2023-03-01T15:51:23;27.80;;;17.07;;
4214;SDS011;2121;48.062;7.850;2023-03-01T15:54:05;31.00;;;18.03;;
4214;SDS011;2121;48.062;7.850;2023-03-01T15:56:43;23.90;;;16.87;;
4214;SDS011;2121;48.062;7.850;2023-03-01T15:59:09;25.07;;;16.93;;
4214;SDS011;2121;48.062;7.850;2023-03-01T16:01:38;27.63;;;18.67;;
4214;SDS011;2121;48.062;7.850;2023-03-01T16:04:04;30.83;;;17.70;;
4214;SDS011;2121;48.062;7.850;2023-03-01T16:06:30;29.37;;;17.93;;
4214;SDS011;2121;48.062;7.850;2023-03-01T16:08:56;35.47;;;19.30;;
4214;SDS011;2121;48.062;7.850;2023-03-01T16:11:21;31.03;;;16.63;;
4214;SDS011;2121;48.062;7.850;2023-03-01T16:13:47;23.07;;;16.57;;
4214;SDS011;2121;48.062;7.850;2023-03-01T16:16:15;28.13;;;15.97;;
4214;SDS011;2121;48.062;7.850;2023-03-01T16:18:45;30.83;;;17.63;;
4214;SDS011;2121;48.062;7.850;2023-03-01T16:21:16;30.33;;;17.20;;
4214;SDS011;2121;48.062;7.850;2023-03-01T16:23:49;32.03;;;17.73;;
4214;SDS011;2121;48.062;7.850;2023-03-01T16:26:15;33.33;;;18.67;;
4214;SDS011;2121;48.062;7.850;2023-03-01T16:28:42;32.10;;;18.30;;
4214;SDS011;2121;48.062;7.850;2023-03-01T16:31:09;27.00;;;16.00;;
4214;SDS011;2121;48.062;7.850;2023-03-01T16:33:35;28.83;;;16.97;;
4214;SDS011;2121;48.062;7.850;2023-03-01T16:36:10;36.03;;;18.17;;
4214;SDS011;2121;48.062;7.850;2023-03-01T16:38:37;27.20;;;16.30;;
4214;SDS011;2121;48.062;7.850;2023-03-01T16:41:03;28.43;;;16.73;;
4214;SDS011;2121;48.062;7.850;2023-03-01T16:43:30;26.13;;;16.10;;
4214;SDS011;2121;48.062;7.850;2023-03-01T16:45:56;25.83;;;15.50;;
4214;SDS011;2121;48.062;7.850;2023-03-01T16:48:23;24.13;;;15.93;;
4214;SDS011;2121;48.062;7.850;2023-03-01T16:50:57;25.07;;;16.60;;
4214;SDS011;2121;48.062;7.850;2023-03-01T16:53:24;35.77;;;17.67;;
4214;SDS011;2121;48.062;7.850;2023-03-01T16:55:54;29.83;;;17.27;;
4214;SDS011;2121;48.062;7.850;2023-03-01T16:58:21;22.90;;;14.90;;
4214;SDS011;2121;48.062;7.850;2023-03-01T17:00:49;23.97;;;15.80;;
4214;SDS011;2121;48.062;7.850;2023-03-01T17:03:18;30.80;;;16.87;;
4214;SDS011;2121;48.062;7.850;2023-03-01T17:05:45;29.93;;;18.37;;
4214;SDS011;2121;48.062;7.850;2023-03-01T17:08:11;31.40;;;17.93;;
4214;SDS011;2121;48.062;7.850;2023-03-01T17:10:36;24.73;;;16.33;;
4214;SDS011;2121;48.062;7.850;2023-03-01T17:13:02;29.23;;;17.50;;
4214;SDS011;2121;48.062;7.850;2023-03-01T17:15:28;27.63;;;16.30;;
4214;SDS011;2121;48.062;7.850;2023-03-01T17:17:54;26.43;;;17.57;;
4214;SDS011;2121;48.062;7.850;2023-03-01T17:20:20;27.53;;;17.23;;
4214;SDS011;2121;48.062;7.850;2023-03-01T17:22:45;28.00;;;16.83;;
4214;SDS011;2121;48.062;7.850;2023-03-01T17:25:11;29.07;;;16.83;;
4214;SDS011;2121;48.062;7.850;2023-03-01T17:27:37;33.17;;;19.23;;
4214;SDS011;2121;48.062;7.850;2023-03-01T17:30:05;33.93;;;17.77;;
4214;SDS011;2121;48.062;7.850;2023-03-01T17:32:32;29.40;;;15.90;;